Latest Coastal Weather Observations for Hobart

IDT60701

Issued at 11:03 pm EDT Tuesday 28 March 2017 (issued every 10 minutes, with the page automatically refreshed every 10 minutes)

About coastal observations | Map of coastal stations | Coastal observations for TAS | Marine services | Other Formats
Station Details ID: 094029 Name: HOBART (ELLERSLIE ROAD) Lat: -42.89 Lon: 147.33 Height: 50.5 m
Data from the previous 72 hours. | See also: Recent months at Hobart
Date/Time
EDT
Temp
°C
Wind Pressure Rain since
9am
mm
Weather Cloud Vis
km
Sea
Height
m
Swell
Dir  Spd
kts
Gust
kts
hPa Trend Height
m
Period
s
Dir
28/11:00pm 17.2 NNW 11 17 1005.7 - 0.0 - - - - - - -
28/10:30pm 17.3 NNW 9 15 1005.7 - 0.0 - - - - - - -
28/10:00pm 17.5 NNW 10 16 1006.0 - 0.0 - - - - - - -
28/09:30pm 17.7 NNW 9 15 1006.2 - 0.0 - - - - - - -
28/09:00pm 17.9 NNW 12 18 1006.0 - 0.0 - - - - - - -
28/08:30pm 18.2 NNW 14 23 1005.9 - 0.0 - - - - - - -
28/08:00pm 18.8 NNW 16 27 1005.7 - 0.0 - - - - - - -
28/07:56pm 18.8 NNW 15 27 1005.6 - 0.0 - - - - - - -
28/07:30pm 19.0 NW 13 23 1005.2 - 0.0 - - - - - - -
28/07:00pm 19.3 NW 14 23 1004.9 - 0.0 - - - - - - -
28/06:38pm 19.7 NNW 15 25 1004.7 - 0.0 - - - - - - -
28/06:30pm 19.8 NNW 13 21 1004.7 - 0.0 - - - - - - -
28/06:00pm 20.5 NW 16 26 1004.5 - 0.0 - - - - - - -
28/05:30pm 21.1 NW 17 25 1004.6 - 0.0 - - - - - - -
28/05:04pm 21.7 NW 15 25 1004.5 - 0.0 - - - - - - -
28/05:00pm 21.6 NW 16 25 1004.4 - 0.0 - - - - - - -
28/04:33pm 21.8 WNW 20 30 1004.5 - 0.0 - - - - - - -
28/04:30pm 21.9 NW 21 30 1004.6 - 0.0 - - - - - - -
28/04:00pm 22.6 NW 19 29 1004.3 - 0.0 - - - - - - -
28/03:30pm 22.7 NW 17 28 1004.1 - 0.0 - - - - - - -
28/03:00pm 23.1 NW 16 30 1004.0 - 0.0 - - - - - - -
28/02:30pm 22.6 NW 19 31 1004.1 - 0.0 - - - - - - -
28/02:00pm 22.0 NW 17 27 1004.4 - 0.0 - - - - - - -
28/01:30pm 22.1 NW 20 35 1004.7 - 0.0 - - - - - - -
28/01:00pm 21.2 NW 20 31 1005.0 - 0.0 - - - - - - -
28/12:30pm 21.4 NW 19 29 1005.3 - 0.0 - - - - - - -
28/12:00pm 20.8 NW 19 32 1005.5 - 0.0 - - - - - - -
28/11:30am 20.2 NW 20 33 1005.6 - 0.0 - - - - - - -
28/11:00am 19.9 NW 18 29 1005.8 - 0.0 - - - - - - -
28/10:34am 19.8 NW 15 25 1005.9 - 0.0 - - - - - - -
28/10:30am 19.6 NW 15 24 1005.9 - 0.0 - - - - - - -
28/10:05am 19.0 NW 15 25 1006.1 - 0.0 - - - - - - -
28/10:00am 19.1 NW 13 20 1006.1 - 0.0 - - - - - - -
28/09:30am 18.0 NW 10 15 1006.0 - 0.0 - - - - - - -
28/09:00am 16.9 NW 11 18 1006.1 - 3.0 - - - - - - -
28/08:30am 15.6 NW 7 12 1006.0 - 3.0 - - - - - - -
28/08:00am 13.9 NW 7 10 1005.8 - 3.0 - - - - - - -
28/07:30am 12.9 WNW 4 6 1005.7 - 3.0 - - - - - - -
28/07:00am 13.1 WSW 5 6 1005.4 - 3.0 - - - - - - -
28/06:30am 13.2 WNW 4 6 1005.0 - 3.0 - - - - - - -
28/06:00am 13.7 NNW 5 8 1004.7 - 3.0 - - - - - - -
28/05:30am 14.3 NNW 5 8 1004.6 - 3.0 - - - - - - -
28/05:00am 14.3 N 6 10 1004.3 - 3.0 - - - - - - -
28/04:30am 14.2 E 4 7 1004.1 - 3.0 - - - - - - -
28/04:00am 14.2 NNE 4 7 1003.8 - 3.0 - - - - - - -
28/03:30am 14.5 N 4 7 1004.1 - 3.0 - - - - - - -
28/03:00am 14.8 N 7 10 1004.1 - 3.0 - - - - - - -
28/02:30am 14.9 N 7 11 1004.1 - 3.0 - - - - - - -
28/02:00am 15.3 N 9 13 1004.1 - 3.0 - - - - - - -
28/01:30am 15.5 N 9 13 1003.9 - 3.0 - - - - - - -
28/01:00am 16.0 NNW 11 17 1004.0 - 3.0 - - - - - - -
28/12:30am 15.9 NNW 10 19 1004.1 - 3.0 - - - - - - -
28/12:00am 16.2 NNW 10 19 1004.0 - 3.0 - - - - - - -
 
Date/Time
EDT
Temp
°C
Wind Pressure Rain since
9am
mm
Weather Cloud Vis
km
Sea
Height
m
Swell
Dir  Spd
kts
Gust
kts
hPa Trend Height
m
Period
s
Dir
27/11:30pm 16.6 NNW 9 14 1003.9 - 3.0 - - - - - - -
27/11:00pm 16.6 NNW 6 9 1003.7 - 3.0 - - - - - - -
27/10:30pm 17.0 NNW 9 19 1002.6 - 3.0 - - - - - - -
27/10:00pm 17.0 NW 11 20 1002.3 - 3.0 - - - - - - -
27/09:30pm 16.5 N 9 15 1002.3 - 3.0 - - - - - - -
27/09:00pm 15.9 NNW 6 10 1001.9 - 3.0 - - - - - - -
27/08:30pm 16.0 NNW 8 13 1001.6 - 3.0 - - - - - - -
27/08:00pm 16.1 NW 8 14 1001.1 - 3.0 - - - - - - -
27/07:30pm 16.3 NW 12 20 1000.5 - 3.0 - - - - - - -
27/07:00pm 16.6 NW 14 24 999.7 - 3.0 - - - - - - -
27/06:30pm 16.6 NW 18 31 998.9 - 3.0 - - - - - - -
27/06:01pm 16.9 NW 15 29 998.6 - 3.0 - - - - - - -
27/06:00pm 16.9 NW 14 23 998.7 - 3.0 - - - - - - -
27/05:30pm 16.2 NW 10 17 999.2 - 3.0 - - - - - - -
27/05:00pm 15.4 NW 17 27 998.8 - 3.0 - - - - - - -
27/04:30pm 16.3 NNW 19 33 998.4 - 2.2 - - - - - - -
27/04:15pm 17.4 NW 15 41 997.8 - 1.2 - - - - - - -
27/04:14pm 17.5 NW 14 41 997.8 - 1.2 - - - - - - -
27/04:00pm 18.5 NW 17 29 998.1 - 0.4 - - - - - - -
27/03:30pm 20.7 NW 20 32 996.8 - 0.2 - - - - - - -
27/03:00pm 21.3 WNW 21 32 995.3 - 0.2 Recent precip. - - - - - -
27/02:45pm 22.1 NW 26 46 995.4 - 0.2 - - - - - - -
27/02:30pm 27.1 NNW 23 38 993.5 - 0.0 - - - - - - -
27/02:00pm 28.1 NNW 27 40 993.5 - 0.0 - - - - - - -
27/01:56pm 27.9 NNW 22 40 993.4 - 0.0 - - - - - - -
27/01:30pm 26.5 N 15 27 994.6 - 0.0 - - - - - - -
27/01:00pm 24.5 N 11 16 995.5 - 0.0 - - - - - - -
27/12:30pm 23.4 NNW 9 13 996.5 - 0.0 - - - - - - -
27/12:00pm 22.1 NNW 10 14 998.0 - 0.0 - - - - - - -
27/11:30am 22.4 NNW 9 11 998.4 - 0.0 - - - - - - -
27/11:00am 21.7 NNW 11 14 998.8 - 0.0 - - - - - - -
27/10:30am 20.4 NNW 13 17 999.6 - 0.0 - - - - - - -
27/10:00am 21.2 NNW 13 18 1000.3 - 0.0 - - - - - - -
27/09:30am 18.7 NNW 11 16 1001.2 - 0.0 - - - - - - -
27/09:00am 17.5 NNW 9 17 1001.9 - 0.0 - - - - - - -
27/08:30am 16.3 NNW 11 19 1002.2 - 0.0 - - - - - - -
27/08:00am 16.0 NNW 14 19 1002.8 - 0.0 - - - - - - -
27/07:30am 14.8 NNW 10 15 1003.4 - 0.0 - - - - - - -
27/07:00am 14.0 NW 11 14 1004.1 - 0.0 - - - - - - -
27/06:30am 14.2 NNW 13 17 1004.5 - 0.0 - - - - - - -
27/06:00am 14.2 NW 11 14 1004.9 - 0.0 - - - - - - -
27/05:30am 14.4 NNW 14 18 1005.4 - 0.0 - - - - - - -
27/05:00am 14.8 NNW 13 17 1005.6 - 0.0 - - - - - - -
27/04:30am 15.3 NW 11 13 1006.3 - 0.0 - - - - - - -
27/04:00am 15.3 NW 12 15 1007.0 - 0.0 - - - - - - -
27/03:30am 15.4 NNW 12 16 1007.3 - 0.0 - - - - - - -
27/03:00am 15.0 NNW 14 18 1008.1 - 0.0 - - - - - - -
27/02:30am 14.9 NNW 9 14 1008.7 - 0.0 - - - - - - -
27/02:00am 14.9 NNW 6 11 1009.4 - 0.0 - - - - - - -
27/01:30am 15.2 NNW 8 10 1009.6 - 0.0 - - - - - - -
27/01:00am 15.6 NNW 11 14 1010.4 - 0.0 - - - - - - -
27/12:30am 15.5 NNW 9 12 1010.9 - 0.0 - - - - - - -
27/12:00am 15.5 NNW 7 8 1011.5 - 0.0 - - - - - - -
 
Date/Time
EDT
Temp
°C
Wind Pressure Rain since
9am
mm
Weather Cloud Vis
km
Sea
Height
m
Swell
Dir  Spd
kts
Gust
kts
hPa Trend Height
m
Period
s
Dir
26/11:30pm 15.3 NE 3 7 1012.1 - 0.0 - - - - - - -
26/11:00pm 15.2 CALM 0 0 1012.8 - 0.0 - - - - - - -
26/10:30pm 15.6 CALM 0 0 1013.1 - 0.0 - - - - - - -
26/10:00pm 16.0 CALM 0 0 1013.2 - 0.0 - - - - - - -
26/09:30pm 16.3 CALM 0 3 1013.3 - 0.0 - - - - - - -
26/09:00pm 16.3 WSW 4 6 1013.5 - 0.0 - - - - - - -
26/08:30pm 16.7 WSW 4 6 1013.6 - 0.0 - - - - - - -
26/08:00pm 17.2 WSW 2 3 1013.6 - 0.0 - - - - - - -
26/07:30pm 17.6 SW 5 6 1013.6 - 0.0 - - - - - - -
26/07:00pm 17.9 SW 5 7 1013.6 - 0.0 - - - - - - -
26/06:30pm 18.5 SSW 7 11 1013.6 - 0.0 - - - - - - -
26/06:00pm 19.6 SSE 6 7 1013.6 - 0.0 - - - - - - -
26/05:30pm 20.0 SE 7 9 1013.6 - 0.0 - - - - - - -
26/05:00pm 20.5 SE 8 10 1013.7 - 0.0 - - - - - - -
26/04:30pm 20.4 SE 8 9 1013.6 - 0.0 - - - - - - -
26/04:00pm 20.9 SE 9 12 1013.8 - 0.0 - - - - - - -
26/03:30pm 20.9 SE 8 11 1014.0 - 0.0 - - - - - - -
26/03:00pm 20.6 SE 8 12 1014.1 - 0.0 - - - - - - -
26/02:30pm 21.0 SE 7 9 1014.4 - 0.0 - - - - - - -
26/02:00pm 20.5 SE 8 11 1014.8 - 0.0 - - - - - - -
26/01:30pm 20.3 SE 9 12 1015.0 - 0.0 - - - - - - -
26/01:00pm 20.4 SE 7 9 1015.4 - 0.0 - - - - - - -
26/12:30pm 19.9 SE 6 8 1015.6 - 0.0 - - - - - - -
26/12:00pm 19.8 E 5 7 1015.8 - 0.0 - - - - - - -
26/11:30am 20.4 N 3 5 1015.9 - 0.0 - - - - - - -
26/11:00am 18.4 CALM 0 2 1016.0 - 0.0 - - - - - - -
26/10:30am 17.0 NNW 3 4 1016.0 - 0.0 - - - - - - -
26/10:00am 16.0 NW 3 4 1015.9 - 0.0 - - - - - - -
26/09:30am 15.3 NNW 3 4 1015.8 - 0.0 - - - - - - -
26/09:00am 14.4 NW 4 6 1015.6 - 0.0 - - - - - - -
26/08:30am 13.8 NW 6 8 1015.3 - 0.0 - - - - - - -
26/08:00am 13.1 NNW 6 8 1014.9 - 0.0 - - - - - - -
26/07:30am 12.3 NW 5 6 1014.5 - 0.0 - - - - - - -
26/07:00am 12.3 NNW 5 7 1014.1 - 0.0 - - - - - - -
26/06:30am 12.4 WNW 1 4 1013.9 - 0.0 - - - - - - -
26/06:00am 12.7 WSW 2 4 1013.8 - 0.0 - - - - - - -
26/05:30am 12.7 NW 5 6 1013.8 - 0.0 - - - - - - -
26/05:00am 12.9 WNW 1 3 1013.8 - 0.0 - - - - - - -
26/04:30am 12.9 WSW 4 6 1013.7 - 0.0 - - - - - - -
26/04:00am 13.0 CALM 0 3 1013.9 - 0.0 - - - - - - -
26/03:30am 13.3 WSW 5 6 1013.9 - 0.0 - - - - - - -
26/03:00am 13.3 W 3 4 1013.8 - 0.0 - - - - - - -
26/02:30am 13.5 WSW 5 5 1013.9 - 0.0 - - - - - - -
26/02:00am 13.6 W 4 5 1013.9 - 0.0 - - - - - - -
26/01:30am 13.8 W 5 6 1013.9 - 0.0 - - - - - - -
26/01:00am 14.0 CALM 0 0 1013.9 - 0.0 - - - - - - -
26/12:30am 14.4 W 2 4 1013.8 - 0.0 - - - - - - -
26/12:00am 14.4 CALM 0 0 1013.8 - 0.0 - - - - - - -
 
Date/Time
EDT
Temp
°C
Wind Pressure Rain since
9am
mm
Weather Cloud Vis
km
Sea
Height
m
Swell
Dir  Spd
kts
Gust
kts
hPa Trend Height
m
Period
s
Dir
25/11:30pm 14.7 W 4 5 1013.8 - 0.0 - - - - - - -

Other Formats:

Comma delimited format used in spreadsheet applications
http://www.bom.gov.au/fwo/IDT60701/IDT60701.94970.axf

JavaScript Object Notation format (JSON) in row-major order
http://www.bom.gov.au/fwo/IDT60701/IDT60701.94970.json